Saline, United Kingdom

2:37 AM BST on July 07, 2015 (GMT +0100)
Urquhart Crossford | | Change Station
CLOSE
Current Station
Personal Weather Station
Location: Dunfermline, FIFE
Elevation: 200 ft
Nearby Weather Stations

Elev 200 ft 56.07 °N, 3.48 °W | Updated 6 seconds ago

Light Rain
Light Rain
58.5 °F
Feels Like 58.5 °F
N
6.0
Wind Variable Wind from East
Gusts 10.0 mph

Today
High -- | Low -- °F
--% Chance of Precip.
Yesterday
High -- | Low -- °F
Precip. -- in
4:37 AM 9:59 PM
Waning Gibbous, 70% visible
Pressure 29.62 in
Visibility 6.2 miles
Clouds Mostly Cloudy 3500 ft
Overcast 4100 ft
Dew Point 57 °F
Humidity 96%
Rainfall 0.09 in
Snow Depth Not available.
UV 0 out of 12
Pollen Not available.
Air Quality Not available.
Flu Activity Not available.
METAR EGPH 070120Z 00000KT 9999 -RA BKN035 OVC041 15/14 Q1003

More Conditions Fewer Conditions

Pressure 29.62 in
Visibility 6.2 miles
Clouds Mostly Cloudy 3500 ft
Overcast 4100 ft
Dew Point 57 °F
Humidity 96%
Rainfall 0.09 in
Snow Depth Not available.
UV 0 out of 12
Pollen Not available.
Air Quality Not available.
Flu Activity Not available.
METAR EGPH 070120Z 00000KT 9999 -RA BKN035 OVC041 15/14 Q1003

More Conditions Fewer Conditions

10-Day Weather Forecast

×

Almanac

Astronomy

Jul. 07, 2015 Rise Set
Actual Time
Civil Twilight
Nautical Twilight
Astronomical Twilight
Moon
Length of Visible Light
Length of Day
Tomorrow will be .
, % of the Moon is Illuminated

Today's Extremes

Country Highs Country Lows

Community

WunderPhotos

Upload Photos

1,835,692 photos uploaded!

WunderBlogs® & News

Nearby

Air Quality

  Air Quality AQ Index Pollutant
Not available.

Snow Depth

Station Depth Elevation

Earthquake Activity

City Distance Mag. Time & Date
Minimum magnitude displayed is 2.5.

Coastal Water Temperatures

Place Temperature

Stations

Nearby Weather Stations

Station Location Temp. Windchill Dew Point Humidity Wind Precip. Elev Updated Type